sensor_id;sensor_type;location;lat;lon;timestamp;temperature;humidity
35531;DHT22;21637;53.352;-6.356;2023-10-09T00:00:18;17.30;99.90
35531;DHT22;21637;53.352;-6.356;2023-10-09T00:03:05;17.30;99.90
35531;DHT22;21637;53.352;-6.356;2023-10-09T00:05:32;17.30;99.90
35531;DHT22;21637;53.352;-6.356;2023-10-09T00:08:10;17.30;99.90
35531;DHT22;21637;53.352;-6.356;2023-10-09T00:10:41;17.30;99.90
35531;DHT22;21637;53.352;-6.356;2023-10-09T00:13:21;17.30;99.90
35531;DHT22;21637;53.352;-6.356;2023-10-09T00:15:54;17.30;99.90
35531;DHT22;21637;53.352;-6.356;2023-10-09T00:18:25;17.20;99.90
35531;DHT22;21637;53.352;-6.356;2023-10-09T00:20:55;17.20;99.90
35531;DHT22;21637;53.352;-6.356;2023-10-09T00:23:27;17.30;99.90
35531;DHT22;21637;53.352;-6.356;2023-10-09T00:25:53;17.30;99.90
35531;DHT22;21637;53.352;-6.356;2023-10-09T00:28:39;17.20;99.90
35531;DHT22;21637;53.352;-6.356;2023-10-09T00:31:16;17.30;99.90
35531;DHT22;21637;53.352;-6.356;2023-10-09T00:33:45;17.30;99.90
35531;DHT22;21637;53.352;-6.356;2023-10-09T00:36:11;17.20;99.90
35531;DHT22;21637;53.352;-6.356;2023-10-09T00:38:38;17.20;99.90
35531;DHT22;21637;53.352;-6.356;2023-10-09T00:41:17;17.20;99.90
35531;DHT22;21637;53.352;-6.356;2023-10-09T00:43:46;17.20;99.90
35531;DHT22;21637;53.352;-6.356;2023-10-09T00:46:16;17.20;99.90
35531;DHT22;21637;53.352;-6.356;2023-10-09T00:48:48;17.20;99.90
35531;DHT22;21637;53.352;-6.356;2023-10-09T00:51:19;17.10;99.90
35531;DHT22;21637;53.352;-6.356;2023-10-09T00:53:57;17.10;99.90
35531;DHT22;21637;53.352;-6.356;2023-10-09T00:56:33;17.10;99.90
35531;DHT22;21637;53.352;-6.356;2023-10-09T00:59:10;17.10;99.90
35531;DHT22;21637;53.352;-6.356;2023-10-09T01:01:42;17.10;99.90
35531;DHT22;21637;53.352;-6.356;2023-10-09T01:04:22;17.00;99.90
35531;DHT22;21637;53.352;-6.356;2023-10-09T01:06:48;17.00;99.90
35531;DHT22;21637;53.352;-6.356;2023-10-09T01:09:29;17.00;99.90
35531;DHT22;21637;53.352;-6.356;2023-10-09T01:12:01;16.90;99.90
35531;DHT22;21637;53.352;-6.356;2023-10-09T01:14:27;16.90;99.90
35531;DHT22;21637;53.352;-6.356;2023-10-09T01:16:53;16.90;99.90
35531;DHT22;21637;53.352;-6.356;2023-10-09T01:19:20;16.80;99.90
35531;DHT22;21637;53.352;-6.356;2023-10-09T01:21:53;16.80;99.90
35531;DHT22;21637;53.352;-6.356;2023-10-09T01:24:19;16.70;99.90
35531;DHT22;21637;53.352;-6.356;2023-10-09T01:26:46;16.70;99.90
35531;DHT22;21637;53.352;-6.356;2023-10-09T01:29:16;16.70;99.90
35531;DHT22;21637;53.352;-6.356;2023-10-09T01:31:48;16.70;99.90
35531;DHT22;21637;53.352;-6.356;2023-10-09T01:34:21;16.60;99.90
35531;DHT22;21637;53.352;-6.356;2023-10-09T01:36:51;16.60;99.90
35531;DHT22;21637;53.352;-6.356;2023-10-09T01:39:19;16.60;99.90
35531;DHT22;21637;53.352;-6.356;2023-10-09T01:42:05;16.60;99.90
35531;DHT22;21637;53.352;-6.356;2023-10-09T01:44:32;16.50;99.90
35531;DHT22;21637;53.352;-6.356;2023-10-09T01:47:05;16.50;99.90
35531;DHT22;21637;53.352;-6.356;2023-10-09T01:49:37;16.50;99.90
35531;DHT22;21637;53.352;-6.356;2023-10-09T01:52:07;16.40;99.90
35531;DHT22;21637;53.352;-6.356;2023-10-09T01:54:36;16.40;99.90
35531;DHT22;21637;53.352;-6.356;2023-10-09T01:57:07;16.40;99.90
35531;DHT22;21637;53.352;-6.356;2023-10-09T01:59:48;16.40;99.90
35531;DHT22;21637;53.352;-6.356;2023-10-09T02:02:16;16.30;99.90
35531;DHT22;21637;53.352;-6.356;2023-10-09T02:04:52;16.30;99.90
35531;DHT22;21637;53.352;-6.356;2023-10-09T02:07:19;16.30;99.90
35531;DHT22;21637;53.352;-6.356;2023-10-09T02:09:53;16.30;99.90
35531;DHT22;21637;53.352;-6.356;2023-10-09T02:12:19;16.30;99.90
35531;DHT22;21637;53.352;-6.356;2023-10-09T02:14:47;16.30;99.90
35531;DHT22;21637;53.352;-6.356;2023-10-09T02:17:13;16.30;99.90
35531;DHT22;21637;53.352;-6.356;2023-10-09T02:19:46;16.20;99.90
35531;DHT22;21637;53.352;-6.356;2023-10-09T02:22:15;16.30;99.90
35531;DHT22;21637;53.352;-6.356;2023-10-09T02:24:43;16.20;99.90
35531;DHT22;21637;53.352;-6.356;2023-10-09T02:27:17;16.20;99.90
35531;DHT22;21637;53.352;-6.356;2023-10-09T02:30:06;16.30;99.90
35531;DHT22;21637;53.352;-6.356;2023-10-09T02:32:43;16.20;99.90
35531;DHT22;21637;53.352;-6.356;2023-10-09T02:35:10;16.20;99.90
35531;DHT22;21637;53.352;-6.356;2023-10-09T02:37:57;16.20;99.90
35531;DHT22;21637;53.352;-6.356;2023-10-09T02:40:27;16.20;99.90
35531;DHT22;21637;53.352;-6.356;2023-10-09T02:42:57;16.20;99.90
35531;DHT22;21637;53.352;-6.356;2023-10-09T02:45:24;16.20;99.90
35531;DHT22;21637;53.352;-6.356;2023-10-09T02:47:50;16.10;99.90
35531;DHT22;21637;53.352;-6.356;2023-10-09T02:50:17;16.10;99.90
35531;DHT22;21637;53.352;-6.356;2023-10-09T02:52:49;16.20;99.90
35531;DHT22;21637;53.352;-6.356;2023-10-09T02:55:24;16.10;99.90
35531;DHT22;21637;53.352;-6.356;2023-10-09T02:57:53;16.10;99.90
35531;DHT22;21637;53.352;-6.356;2023-10-09T03:00:30;16.10;99.90
35531;DHT22;21637;53.352;-6.356;2023-10-09T03:02:57;16.10;99.90
35531;DHT22;21637;53.352;-6.356;2023-10-09T03:05:24;16.10;99.90
35531;DHT22;21637;53.352;-6.356;2023-10-09T03:07:54;16.10;99.90
35531;DHT22;21637;53.352;-6.356;2023-10-09T03:10:23;16.10;99.90
35531;DHT22;21637;53.352;-6.356;2023-10-09T03:12:51;16.10;99.90
35531;DHT22;21637;53.352;-6.356;2023-10-09T03:15:21;16.10;99.90
35531;DHT22;21637;53.352;-6.356;2023-10-09T03:17:47;16.10;99.90
35531;DHT22;21637;53.352;-6.356;2023-10-09T03:20:14;16.00;99.90
35531;DHT22;21637;53.352;-6.356;2023-10-09T03:22:45;16.10;99.90
35531;DHT22;21637;53.352;-6.356;2023-10-09T03:25:11;16.00;99.90
35531;DHT22;21637;53.352;-6.356;2023-10-09T03:27:43;16.00;99.90
35531;DHT22;21637;53.352;-6.356;2023-10-09T03:30:16;16.00;99.90
35531;DHT22;21637;53.352;-6.356;2023-10-09T03:32:52;15.90;99.90
35531;DHT22;21637;53.352;-6.356;2023-10-09T03:35:18;16.00;99.90
35531;DHT22;21637;53.352;-6.356;2023-10-09T03:37:52;15.90;99.90
35531;DHT22;21637;53.352;-6.356;2023-10-09T03:40:23;15.90;99.90
35531;DHT22;21637;53.352;-6.356;2023-10-09T03:42:48;15.90;99.90
35531;DHT22;21637;53.352;-6.356;2023-10-09T03:45:14;15.80;99.90
35531;DHT22;21637;53.352;-6.356;2023-10-09T03:47:54;15.80;99.90
35531;DHT22;21637;53.352;-6.356;2023-10-09T03:50:47;15.80;99.90
35531;DHT22;21637;53.352;-6.356;2023-10-09T03:53:13;15.80;99.90
35531;DHT22;21637;53.352;-6.356;2023-10-09T03:55:40;15.80;99.90
35531;DHT22;21637;53.352;-6.356;2023-10-09T03:58:09;15.80;99.90
35531;DHT22;21637;53.352;-6.356;2023-10-09T04:00:37;15.80;99.90
35531;DHT22;21637;53.352;-6.356;2023-10-09T04:03:12;15.80;99.90
35531;DHT22;21637;53.352;-6.356;2023-10-09T04:05:39;15.90;99.90
35531;DHT22;21637;53.352;-6.356;2023-10-09T04:08:12;15.90;99.90
35531;DHT22;21637;53.352;-6.356;2023-10-09T04:10:39;15.80;99.90
35531;DHT22;21637;53.352;-6.356;2023-10-09T04:13:18;15.80;99.90
35531;DHT22;21637;53.352;-6.356;2023-10-09T04:15:51;15.90;99.90
35531;DHT22;21637;53.352;-6.356;2023-10-09T04:18:20;15.90;99.90
35531;DHT22;21637;53.352;-6.356;2023-10-09T04:20:46;15.90;99.90
35531;DHT22;21637;53.352;-6.356;2023-10-09T04:23:30;15.90;99.90
35531;DHT22;21637;53.352;-6.356;2023-10-09T04:26:21;15.90;99.90
35531;DHT22;21637;53.352;-6.356;2023-10-09T04:28:50;15.90;99.90
35531;DHT22;21637;53.352;-6.356;2023-10-09T04:31:19;15.80;99.90
35531;DHT22;21637;53.352;-6.356;2023-10-09T04:33:47;15.80;99.90
35531;DHT22;21637;53.352;-6.356;2023-10-09T04:36:32;15.80;99.90
35531;DHT22;21637;53.352;-6.356;2023-10-09T04:39:11;15.80;99.90
35531;DHT22;21637;53.352;-6.356;2023-10-09T04:41:37;15.80;99.90
35531;DHT22;21637;53.352;-6.356;2023-10-09T04:44:11;15.80;99.90
35531;DHT22;21637;53.352;-6.356;2023-10-09T04:46:50;15.80;99.90
35531;DHT22;21637;53.352;-6.356;2023-10-09T04:49:36;15.80;99.90
35531;DHT22;21637;53.352;-6.356;2023-10-09T04:52:15;15.70;99.90
35531;DHT22;21637;53.352;-6.356;2023-10-09T04:55:04;15.80;99.90
35531;DHT22;21637;53.352;-6.356;2023-10-09T04:57:34;15.80;99.90
35531;DHT22;21637;53.352;-6.356;2023-10-09T05:00:17;15.80;99.90
35531;DHT22;21637;53.352;-6.356;2023-10-09T05:02:57;15.80;99.90
35531;DHT22;21637;53.352;-6.356;2023-10-09T05:05:25;15.80;99.90
35531;DHT22;21637;53.352;-6.356;2023-10-09T05:08:07;15.90;99.90
35531;DHT22;21637;53.352;-6.356;2023-10-09T05:11:01;15.90;99.90
35531;DHT22;21637;53.352;-6.356;2023-10-09T05:13:29;15.80;99.90
35531;DHT22;21637;53.352;-6.356;2023-10-09T05:16:07;15.90;99.90
35531;DHT22;21637;53.352;-6.356;2023-10-09T05:18:42;15.80;99.90
35531;DHT22;21637;53.352;-6.356;2023-10-09T05:21:13;15.80;99.90
35531;DHT22;21637;53.352;-6.356;2023-10-09T05:23:39;15.80;99.90
35531;DHT22;21637;53.352;-6.356;2023-10-09T05:26:17;15.80;99.90
35531;DHT22;21637;53.352;-6.356;2023-10-09T05:29:01;15.70;99.90
35531;DHT22;21637;53.352;-6.356;2023-10-09T05:31:50;15.70;99.90
35531;DHT22;21637;53.352;-6.356;2023-10-09T05:34:23;15.70;99.90
35531;DHT22;21637;53.352;-6.356;2023-10-09T05:37:04;15.70;99.90
35531;DHT22;21637;53.352;-6.356;2023-10-09T05:39:44;15.70;99.90
35531;DHT22;21637;53.352;-6.356;2023-10-09T05:42:24;15.70;99.90
35531;DHT22;21637;53.352;-6.356;2023-10-09T05:44:54;15.60;99.90
35531;DHT22;21637;53.352;-6.356;2023-10-09T05:47:38;15.50;99.90
35531;DHT22;21637;53.352;-6.356;2023-10-09T05:50:13;15.50;99.90
35531;DHT22;21637;53.352;-6.356;2023-10-09T05:52:39;15.50;99.90
35531;DHT22;21637;53.352;-6.356;2023-10-09T05:55:05;15.50;99.90
35531;DHT22;21637;53.352;-6.356;2023-10-09T05:57:53;15.50;99.90
35531;DHT22;21637;53.352;-6.356;2023-10-09T06:00:34;15.40;99.90
35531;DHT22;21637;53.352;-6.356;2023-10-09T06:03:19;15.50;99.90
35531;DHT22;21637;53.352;-6.356;2023-10-09T06:05:52;15.40;99.90
35531;DHT22;21637;53.352;-6.356;2023-10-09T06:08:25;15.40;99.90
35531;DHT22;21637;53.352;-6.356;2023-10-09T06:11:10;15.30;99.90
35531;DHT22;21637;53.352;-6.356;2023-10-09T06:13:59;15.30;99.90
35531;DHT22;21637;53.352;-6.356;2023-10-09T06:16:38;15.20;99.90
35531;DHT22;21637;53.352;-6.356;2023-10-09T06:19:05;15.20;99.90
35531;DHT22;21637;53.352;-6.356;2023-10-09T06:21:37;15.20;99.90
35531;DHT22;21637;53.352;-6.356;2023-10-09T06:24:19;15.10;99.90
35531;DHT22;21637;53.352;-6.356;2023-10-09T06:26:45;15.10;99.90
35531;DHT22;21637;53.352;-6.356;2023-10-09T06:29:25;15.10;99.90
35531;DHT22;21637;53.352;-6.356;2023-10-09T06:32:11;15.00;99.90
35531;DHT22;21637;53.352;-6.356;2023-10-09T06:37:19;15.00;99.90
35531;DHT22;21637;53.352;-6.356;2023-10-09T06:39:54;14.90;99.90
35531;DHT22;21637;53.352;-6.356;2023-10-09T06:42:27;14.90;99.90
35531;DHT22;21637;53.352;-6.356;2023-10-09T06:47:31;14.90;99.90
35531;DHT22;21637;53.352;-6.356;2023-10-09T06:50:12;14.80;99.90
35531;DHT22;21637;53.352;-6.356;2023-10-09T06:52:47;14.80;99.90
35531;DHT22;21637;53.352;-6.356;2023-10-09T06:55:37;14.80;99.90
35531;DHT22;21637;53.352;-6.356;2023-10-09T06:58:21;14.80;99.90
35531;DHT22;21637;53.352;-6.356;2023-10-09T07:00:54;14.70;99.90
35531;DHT22;21637;53.352;-6.356;2023-10-09T07:03:40;14.70;99.90
35531;DHT22;21637;53.352;-6.356;2023-10-09T07:06:18;14.70;99.90
35531;DHT22;21637;53.352;-6.356;2023-10-09T07:08:55;14.70;99.90
35531;DHT22;21637;53.352;-6.356;2023-10-09T07:11:44;14.70;99.90
35531;DHT22;21637;53.352;-6.356;2023-10-09T07:14:14;14.70;99.90
35531;DHT22;21637;53.352;-6.356;2023-10-09T07:17:02;14.70;99.90
35531;DHT22;21637;53.352;-6.356;2023-10-09T07:19:44;14.70;99.90
35531;DHT22;21637;53.352;-6.356;2023-10-09T07:22:13;14.60;99.90
35531;DHT22;21637;53.352;-6.356;2023-10-09T07:24:54;14.70;99.90
35531;DHT22;21637;53.352;-6.356;2023-10-09T07:27:28;14.80;99.90
35531;DHT22;21637;53.352;-6.356;2023-10-09T07:30:10;14.80;99.90
35531;DHT22;21637;53.352;-6.356;2023-10-09T07:35:34;15.00;99.90
35531;DHT22;21637;53.352;-6.356;2023-10-09T07:38:17;15.10;99.90
35531;DHT22;21637;53.352;-6.356;2023-10-09T07:40:51;15.30;99.90
35531;DHT22;21637;53.352;-6.356;2023-10-09T07:43:39;15.40;99.90
35531;DHT22;21637;53.352;-6.356;2023-10-09T07:46:05;15.50;99.90
35531;DHT22;21637;53.352;-6.356;2023-10-09T07:48:50;15.60;99.90
35531;DHT22;21637;53.352;-6.356;2023-10-09T07:51:22;15.80;99.90
35531;DHT22;21637;53.352;-6.356;2023-10-09T07:53:57;15.90;99.90
35531;DHT22;21637;53.352;-6.356;2023-10-09T07:56:42;16.00;99.90
35531;DHT22;21637;53.352;-6.356;2023-10-09T07:59:15;16.10;99.90
35531;DHT22;21637;53.352;-6.356;2023-10-09T08:01:44;16.10;99.90
35531;DHT22;21637;53.352;-6.356;2023-10-09T08:04:28;16.10;99.90
35531;DHT22;21637;53.352;-6.356;2023-10-09T08:07:10;16.20;99.90
35531;DHT22;21637;53.352;-6.356;2023-10-09T08:09:54;16.30;99.90
35531;DHT22;21637;53.352;-6.356;2023-10-09T08:12:38;16.30;99.90
35531;DHT22;21637;53.352;-6.356;2023-10-09T08:15:09;16.30;99.90
35531;DHT22;21637;53.352;-6.356;2023-10-09T08:17:58;16.40;99.90
35531;DHT22;21637;53.352;-6.356;2023-10-09T08:20:36;16.40;99.90
35531;DHT22;21637;53.352;-6.356;2023-10-09T08:23:37;16.50;99.90
35531;DHT22;21637;53.352;-6.356;2023-10-09T08:26:15;16.50;99.90
35531;DHT22;21637;53.352;-6.356;2023-10-09T08:28:54;16.50;99.90
35531;DHT22;21637;53.352;-6.356;2023-10-09T08:31:41;16.50;99.90
35531;DHT22;21637;53.352;-6.356;2023-10-09T08:34:22;16.50;99.90
35531;DHT22;21637;53.352;-6.356;2023-10-09T08:36:52;16.40;99.90
35531;DHT22;21637;53.352;-6.356;2023-10-09T08:39:21;16.40;99.90
35531;DHT22;21637;53.352;-6.356;2023-10-09T08:41:56;16.40;99.90
35531;DHT22;21637;53.352;-6.356;2023-10-09T08:44:27;16.50;99.90
35531;DHT22;21637;53.352;-6.356;2023-10-09T08:46:55;16.50;99.90
35531;DHT22;21637;53.352;-6.356;2023-10-09T08:49:23;16.60;99.90
35531;DHT22;21637;53.352;-6.356;2023-10-09T08:51:49;16.60;99.90
35531;DHT22;21637;53.352;-6.356;2023-10-09T08:54:18;16.60;99.90
35531;DHT22;21637;53.352;-6.356;2023-10-09T08:56:46;16.70;99.90
35531;DHT22;21637;53.352;-6.356;2023-10-09T08:59:19;16.70;99.90
35531;DHT22;21637;53.352;-6.356;2023-10-09T09:01:49;16.80;99.90
35531;DHT22;21637;53.352;-6.356;2023-10-09T09:04:38;16.90;99.90
35531;DHT22;21637;53.352;-6.356;2023-10-09T09:07:05;17.00;99.90
35531;DHT22;21637;53.352;-6.356;2023-10-09T09:09:31;17.00;99.90
35531;DHT22;21637;53.352;-6.356;2023-10-09T09:11:59;17.10;99.90
35531;DHT22;21637;53.352;-6.356;2023-10-09T09:14:38;17.10;99.90
35531;DHT22;21637;53.352;-6.356;2023-10-09T09:17:05;17.20;99.90
35531;DHT22;21637;53.352;-6.356;2023-10-09T09:19:36;17.30;99.90
35531;DHT22;21637;53.352;-6.356;2023-10-09T09:22:03;17.30;99.90
35531;DHT22;21637;53.352;-6.356;2023-10-09T09:24:39;17.40;99.90
35531;DHT22;21637;53.352;-6.356;2023-10-09T09:27:05;17.40;99.90
35531;DHT22;21637;53.352;-6.356;2023-10-09T09:29:47;17.40;99.90
35531;DHT22;21637;53.352;-6.356;2023-10-09T09:32:27;17.40;99.90
35531;DHT22;21637;53.352;-6.356;2023-10-09T09:35:02;17.50;99.90
35531;DHT22;21637;53.352;-6.356;2023-10-09T09:37:34;17.60;99.90
35531;DHT22;21637;53.352;-6.356;2023-10-09T09:40:09;17.60;99.90
35531;DHT22;21637;53.352;-6.356;2023-10-09T09:42:57;17.70;99.90
35531;DHT22;21637;53.352;-6.356;2023-10-09T09:45:34;17.70;99.90
35531;DHT22;21637;53.352;-6.356;2023-10-09T09:48:05;17.80;99.90
35531;DHT22;21637;53.352;-6.356;2023-10-09T09:50:34;17.80;99.90
35531;DHT22;21637;53.352;-6.356;2023-10-09T09:53:04;17.90;99.90
35531;DHT22;21637;53.352;-6.356;2023-10-09T09:55:34;18.00;99.90
35531;DHT22;21637;53.352;-6.356;2023-10-09T09:58:12;18.10;99.90
35531;DHT22;21637;53.352;-6.356;2023-10-09T10:00:44;18.10;99.90
35531;DHT22;21637;53.352;-6.356;2023-10-09T10:03:16;18.20;99.90
35531;DHT22;21637;53.352;-6.356;2023-10-09T10:05:45;18.30;99.90
35531;DHT22;21637;53.352;-6.356;2023-10-09T10:08:19;18.30;99.90
35531;DHT22;21637;53.352;-6.356;2023-10-09T10:10:49;18.30;99.90
35531;DHT22;21637;53.352;-6.356;2023-10-09T10:16:11;18.40;99.90
35531;DHT22;21637;53.352;-6.356;2023-10-09T10:19:03;18.50;99.90
35531;DHT22;21637;53.352;-6.356;2023-10-09T10:21:44;18.60;99.90
35531;DHT22;21637;53.352;-6.356;2023-10-09T10:27:17;18.60;99.90
35531;DHT22;21637;53.352;-6.356;2023-10-09T10:32:58;18.70;99.90
35531;DHT22;21637;53.352;-6.356;2023-10-09T10:35:35;18.80;99.90
35531;DHT22;21637;53.352;-6.356;2023-10-09T10:38:31;18.80;99.90
35531;DHT22;21637;53.352;-6.356;2023-10-09T10:41:18;18.90;99.90
35531;DHT22;21637;53.352;-6.356;2023-10-09T10:43:45;18.90;99.90
35531;DHT22;21637;53.352;-6.356;2023-10-09T10:46:14;19.00;99.90
35531;DHT22;21637;53.352;-6.356;2023-10-09T10:48:52;19.10;99.90
35531;DHT22;21637;53.352;-6.356;2023-10-09T10:51:34;19.20;99.90
35531;DHT22;21637;53.352;-6.356;2023-10-09T10:54:07;19.30;99.90
35531;DHT22;21637;53.352;-6.356;2023-10-09T10:56:51;19.30;99.90
35531;DHT22;21637;53.352;-6.356;2023-10-09T10:59:20;19.30;99.90
35531;DHT22;21637;53.352;-6.356;2023-10-09T11:01:50;19.20;99.90
35531;DHT22;21637;53.352;-6.356;2023-10-09T11:04:22;19.30;99.90
35531;DHT22;21637;53.352;-6.356;2023-10-09T11:07:01;19.20;99.90
35531;DHT22;21637;53.352;-6.356;2023-10-09T11:09:57;19.20;99.90
35531;DHT22;21637;53.352;-6.356;2023-10-09T11:12:58;19.20;99.90
35531;DHT22;21637;53.352;-6.356;2023-10-09T11:15:38;19.20;99.90
35531;DHT22;21637;53.352;-6.356;2023-10-09T11:18:12;19.20;99.90
35531;DHT22;21637;53.352;-6.356;2023-10-09T11:20:55;19.20;99.90
35531;DHT22;21637;53.352;-6.356;2023-10-09T11:23:42;19.40;99.90
35531;DHT22;21637;53.352;-6.356;2023-10-09T11:26:17;19.40;99.90
35531;DHT22;21637;53.352;-6.356;2023-10-09T11:29:05;19.40;99.90
35531;DHT22;21637;53.352;-6.356;2023-10-09T11:31:39;19.40;99.90
35531;DHT22;21637;53.352;-6.356;2023-10-09T11:34:18;19.40;99.90
35531;DHT22;21637;53.352;-6.356;2023-10-09T11:36:55;19.50;99.90
35531;DHT22;21637;53.352;-6.356;2023-10-09T11:39:30;19.60;99.90
35531;DHT22;21637;53.352;-6.356;2023-10-09T11:42:07;19.60;99.90
35531;DHT22;21637;53.352;-6.356;2023-10-09T11:44:42;19.60;99.90
35531;DHT22;21637;53.352;-6.356;2023-10-09T11:47:10;19.60;99.90
35531;DHT22;21637;53.352;-6.356;2023-10-09T11:49:58;19.60;99.90
35531;DHT22;21637;53.352;-6.356;2023-10-09T11:52:24;19.70;99.90
35531;DHT22;21637;53.352;-6.356;2023-10-09T11:55:11;19.70;99.90
35531;DHT22;21637;53.352;-6.356;2023-10-09T11:57:41;19.70;99.90
35531;DHT22;21637;53.352;-6.356;2023-10-09T12:00:07;19.70;99.90
35531;DHT22;21637;53.352;-6.356;2023-10-09T12:02:37;19.80;99.90
35531;DHT22;21637;53.352;-6.356;2023-10-09T12:05:10;19.90;99.90
35531;DHT22;21637;53.352;-6.356;2023-10-09T12:07:46;19.90;99.90
35531;DHT22;21637;53.352;-6.356;2023-10-09T12:10:12;19.90;99.90
35531;DHT22;21637;53.352;-6.356;2023-10-09T12:12:40;20.10;99.90
35531;DHT22;21637;53.352;-6.356;2023-10-09T12:15:12;20.10;99.90
35531;DHT22;21637;53.352;-6.356;2023-10-09T12:17:44;20.10;99.90
35531;DHT22;21637;53.352;-6.356;2023-10-09T12:20:15;20.10;99.90
35531;DHT22;21637;53.352;-6.356;2023-10-09T12:23:01;20.10;99.90
35531;DHT22;21637;53.352;-6.356;2023-10-09T12:25:30;20.10;99.90
35531;DHT22;21637;53.352;-6.356;2023-10-09T12:27:57;20.20;99.90
35531;DHT22;21637;53.352;-6.356;2023-10-09T12:30:24;20.10;99.90
35531;DHT22;21637;53.352;-6.356;2023-10-09T12:32:56;20.20;99.90
35531;DHT22;21637;53.352;-6.356;2023-10-09T12:35:26;20.30;99.90
35531;DHT22;21637;53.352;-6.356;2023-10-09T12:37:54;20.40;99.90
35531;DHT22;21637;53.352;-6.356;2023-10-09T12:40:21;20.40;99.90
35531;DHT22;21637;53.352;-6.356;2023-10-09T12:42:52;20.40;99.90
35531;DHT22;21637;53.352;-6.356;2023-10-09T12:45:18;20.50;99.90
35531;DHT22;21637;53.352;-6.356;2023-10-09T12:47:45;20.50;99.90
35531;DHT22;21637;53.352;-6.356;2023-10-09T12:50:13;20.70;99.90
35531;DHT22;21637;53.352;-6.356;2023-10-09T12:52:40;20.70;99.90
35531;DHT22;21637;53.352;-6.356;2023-10-09T12:55:06;20.80;99.90
35531;DHT22;21637;53.352;-6.356;2023-10-09T12:57:35;20.80;99.90
35531;DHT22;21637;53.352;-6.356;2023-10-09T13:00:02;20.90;99.90
35531;DHT22;21637;53.352;-6.356;2023-10-09T13:02:36;21.00;99.90
35531;DHT22;21637;53.352;-6.356;2023-10-09T13:05:02;21.10;99.90
35531;DHT22;21637;53.352;-6.356;2023-10-09T13:07:31;21.20;99.90
35531;DHT22;21637;53.352;-6.356;2023-10-09T13:09:56;21.30;99.90
35531;DHT22;21637;53.352;-6.356;2023-10-09T13:12:35;21.50;99.90
35531;DHT22;21637;53.352;-6.356;2023-10-09T13:15:10;21.50;99.90
35531;DHT22;21637;53.352;-6.356;2023-10-09T13:17:37;21.40;99.90
35531;DHT22;21637;53.352;-6.356;2023-10-09T13:20:04;21.40;99.90
35531;DHT22;21637;53.352;-6.356;2023-10-09T13:22:42;21.30;99.90
35531;DHT22;21637;53.352;-6.356;2023-10-09T13:25:11;21.20;99.90
35531;DHT22;21637;53.352;-6.356;2023-10-09T13:27:43;21.20;99.90
35531;DHT22;21637;53.352;-6.356;2023-10-09T13:30:19;21.10;99.90
35531;DHT22;21637;53.352;-6.356;2023-10-09T13:32:49;21.00;99.90
35531;DHT22;21637;53.352;-6.356;2023-10-09T13:35:17;21.10;99.90
35531;DHT22;21637;53.352;-6.356;2023-10-09T13:37:44;21.10;99.90
35531;DHT22;21637;53.352;-6.356;2023-10-09T13:40:15;21.10;99.90
35531;DHT22;21637;53.352;-6.356;2023-10-09T13:42:53;21.00;99.90
35531;DHT22;21637;53.352;-6.356;2023-10-09T13:45:25;21.10;99.90
35531;DHT22;21637;53.352;-6.356;2023-10-09T13:47:56;21.10;99.90
35531;DHT22;21637;53.352;-6.356;2023-10-09T13:50:25;21.10;99.90
35531;DHT22;21637;53.352;-6.356;2023-10-09T13:52:57;21.20;99.90
35531;DHT22;21637;53.352;-6.356;2023-10-09T13:55:23;21.10;99.90
35531;DHT22;21637;53.352;-6.356;2023-10-09T13:57:57;21.00;99.90
35531;DHT22;21637;53.352;-6.356;2023-10-09T14:00:23;20.90;99.90
35531;DHT22;21637;53.352;-6.356;2023-10-09T14:03:02;20.80;99.90
35531;DHT22;21637;53.352;-6.356;2023-10-09T14:05:37;20.80;99.90
35531;DHT22;21637;53.352;-6.356;2023-10-09T14:08:18;20.80;99.90
35531;DHT22;21637;53.352;-6.356;2023-10-09T14:10:44;20.70;99.90
35531;DHT22;21637;53.352;-6.356;2023-10-09T14:13:14;20.70;99.90
35531;DHT22;21637;53.352;-6.356;2023-10-09T14:15:42;20.80;99.90
35531;DHT22;21637;53.352;-6.356;2023-10-09T14:18:08;20.70;99.90
35531;DHT22;21637;53.352;-6.356;2023-10-09T14:20:37;20.70;99.90
35531;DHT22;21637;53.352;-6.356;2023-10-09T14:23:03;20.70;99.90
35531;DHT22;21637;53.352;-6.356;2023-10-09T14:25:36;20.60;99.90
35531;DHT22;21637;53.352;-6.356;2023-10-09T14:28:13;20.40;99.90
35531;DHT22;21637;53.352;-6.356;2023-10-09T14:30:44;20.40;99.90
35531;DHT22;21637;53.352;-6.356;2023-10-09T14:33:13;20.40;99.90
35531;DHT22;21637;53.352;-6.356;2023-10-09T14:35:42;20.30;99.90
35531;DHT22;21637;53.352;-6.356;2023-10-09T14:38:11;20.20;99.90
35531;DHT22;21637;53.352;-6.356;2023-10-09T14:43:08;20.20;99.90
35531;DHT22;21637;53.352;-6.356;2023-10-09T14:45:37;20.10;99.90
35531;DHT22;21637;53.352;-6.356;2023-10-09T14:48:03;20.10;99.90
35531;DHT22;21637;53.352;-6.356;2023-10-09T14:50:28;20.10;99.90
35531;DHT22;21637;53.352;-6.356;2023-10-09T14:52:54;20.10;99.90
35531;DHT22;21637;53.352;-6.356;2023-10-09T14:55:20;20.10;99.90
35531;DHT22;21637;53.352;-6.356;2023-10-09T14:57:54;19.90;99.90
35531;DHT22;21637;53.352;-6.356;2023-10-09T15:00:20;19.90;99.90
35531;DHT22;21637;53.352;-6.356;2023-10-09T15:02:50;19.80;99.90
35531;DHT22;21637;53.352;-6.356;2023-10-09T15:05:18;19.70;99.90
35531;DHT22;21637;53.352;-6.356;2023-10-09T15:07:44;19.70;99.90
35531;DHT22;21637;53.352;-6.356;2023-10-09T15:10:11;19.60;99.90
35531;DHT22;21637;53.352;-6.356;2023-10-09T15:12:41;19.70;99.90
35531;DHT22;21637;53.352;-6.356;2023-10-09T15:15:09;19.70;99.90
35531;DHT22;21637;53.352;-6.356;2023-10-09T15:17:42;19.70;99.90
35531;DHT22;21637;53.352;-6.356;2023-10-09T15:20:14;19.70;99.90
35531;DHT22;21637;53.352;-6.356;2023-10-09T15:22:44;19.70;99.90
35531;DHT22;21637;53.352;-6.356;2023-10-09T15:25:10;19.80;99.90
35531;DHT22;21637;53.352;-6.356;2023-10-09T15:27:45;19.70;99.90
35531;DHT22;21637;53.352;-6.356;2023-10-09T15:30:11;19.70;99.90
35531;DHT22;21637;53.352;-6.356;2023-10-09T15:32:42;19.70;99.90
35531;DHT22;21637;53.352;-6.356;2023-10-09T15:35:09;19.60;99.90
35531;DHT22;21637;53.352;-6.356;2023-10-09T15:37:38;19.70;99.90
35531;DHT22;21637;53.352;-6.356;2023-10-09T15:40:06;19.70;99.90
35531;DHT22;21637;53.352;-6.356;2023-10-09T15:42:42;19.70;99.90
35531;DHT22;21637;53.352;-6.356;2023-10-09T15:45:08;19.70;99.90
35531;DHT22;21637;53.352;-6.356;2023-10-09T15:47:35;19.60;99.90
35531;DHT22;21637;53.352;-6.356;2023-10-09T15:50:05;19.50;99.90
35531;DHT22;21637;53.352;-6.356;2023-10-09T15:52:34;19.40;99.90
35531;DHT22;21637;53.352;-6.356;2023-10-09T15:55:00;19.40;99.90
35531;DHT22;21637;53.352;-6.356;2023-10-09T15:57:26;19.30;99.90
35531;DHT22;21637;53.352;-6.356;2023-10-09T15:59:52;19.30;99.90
35531;DHT22;21637;53.352;-6.356;2023-10-09T16:02:18;19.10;99.90
35531;DHT22;21637;53.352;-6.356;2023-10-09T16:04:44;19.00;99.90
35531;DHT22;21637;53.352;-6.356;2023-10-09T16:07:11;18.90;99.90
35531;DHT22;21637;53.352;-6.356;2023-10-09T16:09:36;18.90;99.90
35531;DHT22;21637;53.352;-6.356;2023-10-09T16:12:08;18.90;99.90